createdAt,value
2022-08-12T00:02:15.309Z,88.73
2022-08-12T00:04:37.161Z,88.61
2022-08-12T00:07:05.641Z,89.09
2022-08-12T00:09:28.162Z,89.88
2022-08-12T00:11:51.980Z,89.70
2022-08-12T00:14:24.956Z,89.77
2022-08-12T00:16:50.150Z,89.09
2022-08-12T00:19:12.668Z,88.73
2022-08-12T00:21:38.036Z,88.16
2022-08-12T00:24:01.300Z,88.06
2022-08-12T00:26:47.773Z,87.79
2022-08-12T00:29:09.948Z,88.73
2022-08-12T00:31:37.746Z,88.59
2022-08-12T00:33:59.289Z,88.67
2022-08-12T00:36:34.850Z,88.61
2022-08-12T00:39:08.401Z,89.30
2022-08-12T00:41:39.212Z,90.03
2022-08-12T00:43:56.613Z,89.87
2022-08-12T00:46:24.486Z,89.64
2022-08-12T00:48:27.015Z,90.00
2022-08-12T00:50:32.389Z,89.71
2022-08-12T00:52:36.176Z,89.01
2022-08-12T00:55:06.555Z,89.20
2022-08-12T00:57:37.156Z,90.19
2022-08-12T00:59:53.080Z,91.00
2022-08-12T01:02:11.096Z,90.84
2022-08-12T01:04:39.073Z,91.55
2022-08-12T01:07:05.590Z,91.51
2022-08-12T01:09:29.046Z,91.21
2022-08-12T01:12:00.535Z,91.88
2022-08-12T01:14:03.667Z,92.16
2022-08-12T01:16:09.159Z,92.20
2022-08-12T01:18:14.344Z,92.75
2022-08-12T01:20:36.078Z,92.69
2022-08-12T01:23:18.803Z,93.21
2022-08-12T01:25:25.008Z,94.08
2022-08-12T01:27:40.717Z,94.83
2022-08-12T01:29:52.779Z,95.40
2022-08-12T01:32:23.833Z,95.62
2022-08-12T01:34:36.136Z,96.32
2022-08-12T01:36:46.782Z,96.49
2022-08-12T01:38:59.490Z,96.71
2022-08-12T01:41:18.460Z,96.36
2022-08-12T01:44:01.371Z,95.77
2022-08-12T01:46:16.910Z,95.59
2022-08-12T01:52:21.551Z,95.24
2022-08-12T01:54:19.838Z,95.55
2022-08-12T01:56:26.540Z,95.33
2022-08-12T01:59:01.363Z,95.74
2022-08-12T02:01:24.035Z,96.46
2022-08-12T02:04:03.995Z,97.36
2022-08-12T02:06:45.101Z,98.13
2022-08-12T02:09:34.849Z,98.37
2022-08-12T02:12:06.232Z,98.56
2022-08-12T02:14:15.595Z,98.55
2022-08-12T02:16:46.750Z,98.56
2022-08-12T02:19:32.870Z,98.04
2022-08-12T02:21:43.069Z,97.73
2022-08-12T02:23:45.579Z,96.91
2022-08-12T02:25:50.590Z,97.05
2022-08-12T02:27:54.615Z,96.72
2022-08-12T02:30:15.644Z,96.92
2022-08-12T02:32:24.818Z,97.12
2022-08-12T02:34:35.785Z,97.06
2022-08-12T02:36:45.264Z,96.92
2022-08-12T02:38:55.679Z,96.73
2022-08-12T02:41:03.760Z,95.98
2022-08-12T02:43:32.996Z,95.22
2022-08-12T02:45:54.011Z,95.00
2022-08-12T02:48:06.756Z,92.38
2022-08-12T02:50:20.678Z,89.59
2022-08-12T02:52:35.233Z,88.38
2022-08-12T02:54:42.287Z,90.06
2022-08-12T02:56:50.708Z,88.48
2022-08-12T02:58:58.829Z,87.52
2022-08-12T03:01:09.383Z,87.55
2022-08-12T03:03:15.045Z,84.26
2022-08-12T03:05:23.724Z,83.78
2022-08-12T03:07:59.855Z,83.03
2022-08-12T03:10:15.809Z,82.84
2022-08-12T03:12:49.766Z,81.99
2022-08-12T03:15:03.881Z,81.60
2022-08-12T03:17:30.738Z,80.54
2022-08-12T03:19:32.732Z,81.11
2022-08-12T03:21:55.417Z,81.42
2022-08-12T03:24:02.725Z,82.63
2022-08-12T03:26:13.554Z,83.31
2022-08-12T03:28:40.273Z,83.61
2022-08-12T03:30:56.218Z,82.91
2022-08-12T03:33:01.471Z,81.12
2022-08-12T03:35:08.763Z,81.62
2022-08-12T03:37:37.640Z,86.76
2022-08-12T03:39:43.904Z,87.85
2022-08-12T03:42:09.190Z,88.25
2022-08-12T03:44:46.229Z,87.26
2022-08-12T03:47:21.285Z,87.73
2022-08-12T03:49:43.961Z,86.37
2022-08-12T03:52:06.653Z,87.70
2022-08-12T03:54:27.592Z,87.35
2022-08-12T03:56:48.634Z,88.23
2022-08-12T03:59:11.788Z,86.96
2022-08-12T04:01:26.056Z,84.99
2022-08-12T04:03:57.534Z,83.04
2022-08-12T04:06:08.762Z,84.15
2022-08-12T04:08:22.753Z,83.99
2022-08-12T04:10:48.372Z,83.05
2022-08-12T04:13:17.133Z,81.79
2022-08-12T04:15:26.049Z,81.18
2022-08-12T04:18:06.365Z,81.30
2022-08-12T04:20:02.156Z,80.97
2022-08-12T04:22:04.326Z,80.40
2022-08-12T04:24:07.161Z,78.90
2022-08-12T04:26:24.429Z,79.33
2022-08-12T04:28:29.266Z,78.86
2022-08-12T04:30:36.648Z,78.13
2022-08-12T04:32:48.968Z,79.12
2022-08-12T04:34:52.558Z,80.10
2022-08-12T04:37:00.272Z,81.17
2022-08-12T04:39:06.262Z,81.24
2022-08-12T04:41:11.085Z,82.77
2022-08-12T04:43:59.885Z,83.22
2022-08-12T04:45:39.038Z,85.64
2022-08-12T04:47:44.515Z,83.15
2022-08-12T04:49:50.937Z,82.86
2022-08-12T04:51:57.634Z,79.68
2022-08-12T04:54:05.344Z,78.74
2022-08-12T04:56:12.662Z,78.05
2022-08-12T04:58:29.337Z,76.07
2022-08-12T05:00:34.132Z,75.82
2022-08-12T05:02:40.308Z,74.41
2022-08-12T05:04:47.800Z,74.76
2022-08-12T05:06:49.720Z,74.18
2022-08-12T05:09:00.063Z,73.16
2022-08-12T05:11:06.351Z,73.62
2022-08-12T05:13:40.182Z,72.56
2022-08-12T05:16:04.619Z,74.07
2022-08-12T05:18:19.209Z,74.10
2022-08-12T05:20:26.259Z,73.55
2022-08-12T05:22:29.197Z,73.45
2022-08-12T05:24:31.212Z,73.48
2022-08-12T05:26:33.204Z,72.29
2022-08-12T05:28:36.747Z,73.17
2022-08-12T05:30:49.060Z,72.77
2022-08-12T05:32:53.700Z,72.93
2022-08-12T05:35:09.383Z,73.21
2022-08-12T05:37:12.316Z,73.03
2022-08-12T05:39:15.317Z,72.84
2022-08-12T05:41:20.765Z,72.93
2022-08-12T05:43:25.055Z,72.07
2022-08-12T05:45:30.924Z,71.35
2022-08-12T05:47:44.904Z,71.84
2022-08-12T05:49:59.666Z,70.98
2022-08-12T05:52:03.840Z,69.91
2022-08-12T05:54:11.798Z,69.40
2022-08-12T05:56:27.103Z,67.54
2022-08-12T05:58:29.020Z,66.72
2022-08-12T06:00:39.281Z,66.32
2022-08-12T06:02:42.885Z,66.47
2022-08-12T06:04:45.849Z,66.85
2022-08-12T06:06:53.629Z,66.91
2022-08-12T06:09:06.227Z,66.15
2022-08-12T06:11:15.674Z,66.04
2022-08-12T06:13:28.920Z,65.37
2022-08-12T06:15:49.505Z,67.51
2022-08-12T06:17:53.466Z,67.12
2022-08-12T06:20:26.069Z,65.00
2022-08-12T06:22:19.386Z,66.70
2022-08-12T06:24:24.672Z,67.36
2022-08-12T06:26:26.712Z,67.82
2022-08-12T06:28:31.469Z,68.95
2022-08-12T06:30:38.688Z,68.87
2022-08-12T06:33:11.282Z,69.99
2022-08-12T06:35:26.884Z,69.94
2022-08-12T06:37:56.493Z,69.39
2022-08-12T06:40:04.967Z,69.82
2022-08-12T06:42:35.689Z,70.30
2022-08-12T06:44:39.593Z,69.01
2022-08-12T06:47:05.267Z,68.02
2022-08-12T06:49:07.280Z,66.11
2022-08-12T06:51:21.022Z,65.20
2022-08-12T06:53:29.166Z,61.46
2022-08-12T06:55:36.886Z,62.19
2022-08-12T06:58:07.440Z,63.11
2022-08-12T07:00:16.243Z,61.60
2022-08-12T07:02:20.857Z,62.80
2022-08-12T07:04:37.353Z,62.75
2022-08-12T07:06:42.197Z,61.38
2022-08-12T07:08:45.214Z,62.18
2022-08-12T07:10:59.345Z,62.21
2022-08-12T07:13:03.107Z,61.28
2022-08-12T07:15:20.417Z,60.56
2022-08-12T07:17:38.049Z,59.96
2022-08-12T07:19:50.249Z,59.48
2022-08-12T07:22:00.244Z,60.17
2022-08-12T07:24:05.299Z,56.96
2022-08-12T07:26:17.166Z,56.02
2022-08-12T07:28:25.697Z,56.19
2022-08-12T07:30:37.449Z,54.73
2022-08-12T07:32:40.599Z,57.15
2022-08-12T07:34:47.623Z,58.30
2022-08-12T07:36:56.470Z,57.89
2022-08-12T07:39:09.264Z,57.80
2022-08-12T07:41:29.035Z,58.75
2022-08-12T07:43:44.183Z,57.89
2022-08-12T07:45:49.538Z,56.79
2022-08-12T07:47:59.660Z,54.83
2022-08-12T07:50:20.054Z,56.52
2022-08-12T07:52:26.044Z,56.61
2022-08-12T07:54:28.040Z,56.33
2022-08-12T07:56:41.265Z,55.54
2022-08-12T07:58:47.128Z,55.92
2022-08-12T08:00:57.434Z,56.40
2022-08-12T08:03:01.225Z,56.88
2022-08-12T08:05:06.971Z,56.93
2022-08-12T08:07:17.139Z,56.00
2022-08-12T08:09:22.153Z,54.39
2022-08-12T08:11:50.641Z,55.17
2022-08-12T08:14:10.400Z,53.41
2022-08-12T08:16:18.188Z,52.30
2022-08-12T08:18:26.590Z,53.13
2022-08-12T08:20:35.861Z,54.91
2022-08-12T08:22:42.638Z,54.04
2022-08-12T08:24:57.820Z,55.40
2022-08-12T08:27:12.765Z,56.89
2022-08-12T08:29:18.285Z,55.52
2022-08-12T08:31:22.268Z,57.34
2022-08-12T08:34:04.832Z,56.90
2022-08-12T08:35:55.399Z,54.88
2022-08-12T08:38:10.263Z,57.05
2022-08-12T08:40:33.295Z,57.12
2022-08-12T08:42:40.636Z,58.23
2022-08-12T08:44:58.119Z,57.95
2022-08-12T08:47:05.808Z,58.13
2022-08-12T08:49:17.769Z,57.27
2022-08-12T08:51:26.230Z,57.01
2022-08-12T08:53:33.235Z,58.00
2022-08-12T08:56:04.171Z,59.34
2022-08-12T08:58:09.415Z,57.63
2022-08-12T09:00:20.006Z,58.29
2022-08-12T09:02:22.053Z,58.33
2022-08-12T09:05:12.052Z,56.75
2022-08-12T09:06:56.856Z,57.91
2022-08-12T09:09:13.351Z,56.98
2022-08-12T09:12:06.450Z,57.82
2022-08-12T09:14:19.172Z,57.83
2022-08-12T09:16:31.809Z,56.42
2022-08-12T09:18:41.155Z,56.25
2022-08-12T09:20:54.478Z,55.82
2022-08-12T09:22:58.904Z,56.22
2022-08-12T09:25:06.276Z,55.80
2022-08-12T09:27:17.062Z,55.44
2022-08-12T09:30:10.072Z,55.25
2022-08-12T09:32:09.178Z,55.50
2022-08-12T09:34:25.291Z,57.50
2022-08-12T09:36:57.691Z,58.42
2022-08-12T09:40:04.631Z,57.12
2022-08-12T09:42:41.049Z,58.13
2022-08-12T09:45:18.743Z,58.62
2022-08-12T09:47:29.745Z,58.23
2022-08-12T09:49:57.922Z,58.91
2022-08-12T09:52:07.641Z,57.93
2022-08-12T09:54:33.837Z,58.86
2022-08-12T09:57:02.707Z,57.78
2022-08-12T09:59:11.211Z,59.48
2022-08-12T10:01:23.303Z,59.06
2022-08-12T10:03:31.204Z,59.71
2022-08-12T10:06:27.386Z,60.10
2022-08-12T10:08:13.747Z,60.30
2022-08-12T10:10:24.847Z,61.00
2022-08-12T10:13:07.003Z,61.24
2022-08-12T10:15:15.368Z,60.38
2022-08-12T10:17:35.989Z,60.22
2022-08-12T10:19:59.380Z,60.63
2022-08-12T10:22:02.607Z,60.94
2022-08-12T10:24:07.525Z,61.96
2022-08-12T10:26:37.400Z,62.14
2022-08-12T10:29:03.511Z,62.83
2022-08-12T10:31:26.000Z,63.10
2022-08-12T10:33:33.685Z,63.70
2022-08-12T10:35:58.483Z,63.58
2022-08-12T10:38:35.752Z,63.04
2022-08-12T10:40:33.047Z,62.79
2022-08-12T10:43:00.576Z,61.97
2022-08-12T10:45:06.594Z,62.60
2022-08-12T10:47:26.389Z,62.18
2022-08-12T10:50:05.596Z,62.83
2022-08-12T10:52:34.597Z,63.54
2022-08-12T10:54:27.574Z,63.01
2022-08-12T10:56:34.515Z,62.87
2022-08-12T10:58:38.963Z,63.32
2022-08-12T11:00:45.182Z,62.85
2022-08-12T11:04:23.173Z,62.61
2022-08-12T11:07:07.347Z,62.26
2022-08-12T11:08:38.875Z,62.82
2022-08-12T11:10:15.251Z,63.37
2022-08-12T11:12:55.346Z,64.35
2022-08-12T11:14:51.633Z,64.07
2022-08-12T11:17:44.145Z,65.33
2022-08-12T11:19:39.810Z,64.24
2022-08-12T11:21:57.713Z,64.50
2022-08-12T11:24:01.853Z,64.80
2022-08-12T11:26:12.081Z,64.90
2022-08-12T11:28:34.456Z,64.60
2022-08-12T11:30:45.965Z,65.18
2022-08-12T11:32:48.111Z,64.66
2022-08-12T11:34:51.832Z,65.36
2022-08-12T11:37:25.901Z,63.88
2022-08-12T11:41:52.835Z,63.20
2022-08-12T11:44:36.705Z,63.59
2022-08-12T11:46:44.757Z,63.87
2022-08-12T11:48:54.310Z,63.71
2022-08-12T11:50:57.247Z,64.33
2022-08-12T11:52:59.369Z,63.74
2022-08-12T11:55:08.596Z,64.11
2022-08-12T11:58:09.191Z,64.23
2022-08-12T12:02:01.568Z,64.12
2022-08-12T12:02:08.577Z,63.42
2022-08-12T12:04:10.659Z,63.49
2022-08-12T12:06:23.341Z,63.14
2022-08-12T12:08:37.091Z,63.97
2022-08-12T12:10:42.217Z,63.51
2022-08-12T12:12:51.328Z,63.96
2022-08-12T12:14:54.765Z,62.70
2022-08-12T12:16:57.774Z,62.57
2022-08-12T12:19:00.818Z,61.99
2022-08-12T12:21:08.458Z,63.75
2022-08-12T12:23:29.323Z,62.21
2022-08-12T12:26:07.442Z,62.60
2022-08-12T12:28:06.456Z,62.05
2022-08-12T12:30:18.218Z,62.84
2022-08-12T12:32:38.187Z,62.79
2022-08-12T12:35:13.756Z,62.67
2022-08-12T12:37:58.891Z,62.23
2022-08-12T12:39:55.038Z,63.59
2022-08-12T12:42:43.022Z,62.62
2022-08-12T12:44:30.174Z,62.39
2022-08-12T12:46:44.677Z,63.29
2022-08-12T12:48:46.648Z,62.82
2022-08-12T12:51:13.589Z,63.29
2022-08-12T12:54:06.599Z,63.07
2022-08-12T12:55:53.378Z,64.32
2022-08-12T12:58:00.926Z,63.84
2022-08-12T13:00:18.206Z,62.65
2022-08-12T13:02:31.499Z,62.82
2022-08-12T13:04:35.102Z,62.87
2022-08-12T13:06:42.727Z,63.00
2022-08-12T13:08:54.682Z,63.15
2022-08-12T13:11:03.742Z,63.72
2022-08-12T13:14:09.118Z,63.06
2022-08-12T13:15:45.024Z,63.39
2022-08-12T13:18:02.899Z,62.95
2022-08-12T13:20:08.982Z,63.25
2022-08-12T13:22:23.717Z,62.67
2022-08-12T13:24:25.991Z,62.67
2022-08-12T13:26:40.834Z,61.93
2022-08-12T13:28:55.974Z,61.75
2022-08-12T13:31:08.437Z,61.65
2022-08-12T13:33:17.526Z,60.90
2022-08-12T13:35:33.292Z,59.97
2022-08-12T13:37:43.933Z,60.73
2022-08-12T13:40:04.963Z,60.52
2022-08-12T13:42:14.950Z,59.58
2022-08-12T13:44:30.477Z,60.00
2022-08-12T13:46:59.011Z,59.38
2022-08-12T13:49:05.032Z,59.86
2022-08-12T13:51:08.229Z,60.75
2022-08-12T13:53:24.338Z,60.34
2022-08-12T13:55:31.318Z,61.38
2022-08-12T13:57:46.971Z,62.48
2022-08-12T13:59:55.233Z,63.86
2022-08-12T14:01:57.872Z,65.42
2022-08-12T14:04:00.029Z,68.05
2022-08-12T14:06:02.882Z,70.95
2022-08-12T14:08:07.126Z,72.43
2022-08-12T14:10:30.295Z,75.49
2022-08-12T14:12:37.215Z,78.67
2022-08-12T14:14:40.744Z,80.75
2022-08-12T14:16:49.092Z,83.86
2022-08-12T14:18:59.062Z,87.54
2022-08-12T14:21:11.978Z,88.11
2022-08-12T14:24:05.685Z,89.75
2022-08-12T14:25:43.788Z,90.23
2022-08-12T14:28:03.551Z,87.46
2022-08-12T14:30:16.022Z,84.40
2022-08-12T14:32:25.946Z,83.40
2022-08-12T14:34:28.448Z,80.96
2022-08-12T14:36:30.509Z,82.51
2022-08-12T14:38:39.847Z,80.95
2022-08-12T14:40:42.882Z,84.77
2022-08-12T14:42:44.875Z,87.53
2022-08-12T14:44:59.859Z,85.41
2022-08-12T14:47:08.097Z,84.39
2022-08-12T14:50:00.816Z,83.84
2022-08-12T14:52:38.829Z,83.16
2022-08-12T14:55:50.799Z,85.88
2022-08-12T14:56:58.751Z,85.28
2022-08-12T14:59:23.161Z,86.55
2022-08-12T15:01:39.749Z,86.38
2022-08-12T15:03:57.841Z,83.77
2022-08-12T15:06:05.908Z,83.26
2022-08-12T15:08:30.555Z,82.97
2022-08-12T15:10:36.429Z,83.49
2022-08-12T15:12:40.547Z,84.50
2022-08-12T15:14:45.801Z,84.46
2022-08-12T15:16:48.742Z,83.63
2022-08-12T15:18:59.158Z,84.46
2022-08-12T15:21:06.224Z,82.48
2022-08-12T15:23:17.742Z,84.93
2022-08-12T15:25:23.391Z,83.93
2022-08-12T15:27:31.588Z,83.46
2022-08-12T15:29:47.624Z,85.05
2022-08-12T15:32:02.113Z,86.22
2022-08-12T15:34:06.992Z,80.28
2022-08-12T15:36:36.569Z,79.86
2022-08-12T15:38:42.207Z,83.69
2022-08-12T15:40:49.730Z,82.25
2022-08-12T15:42:54.734Z,81.19
2022-08-12T15:44:56.852Z,83.45
2022-08-12T15:46:58.945Z,82.63
2022-08-12T15:49:01.948Z,81.89
2022-08-12T15:51:05.740Z,80.89
2022-08-12T15:53:14.195Z,82.47
2022-08-12T15:55:20.280Z,82.61
2022-08-12T15:57:24.759Z,82.46
2022-08-12T15:59:52.033Z,81.78
2022-08-12T16:01:50.871Z,81.58
2022-08-12T16:04:00.138Z,80.78
2022-08-12T16:06:11.750Z,80.78
2022-08-12T16:08:27.441Z,81.72
2022-08-12T16:10:31.151Z,84.17
2022-08-12T16:12:43.360Z,86.32
2022-08-12T16:14:46.616Z,87.70
2022-08-12T16:16:51.697Z,88.86
2022-08-12T16:19:01.999Z,89.49
2022-08-12T16:21:11.369Z,90.76
2022-08-12T16:23:51.477Z,92.13
2022-08-12T16:26:14.487Z,94.26
2022-08-12T16:28:17.790Z,92.99
2022-08-12T16:30:20.976Z,92.73
2022-08-12T16:32:39.399Z,92.34
2022-08-12T16:34:55.562Z,93.49
2022-08-12T16:37:03.308Z,93.64
2022-08-12T16:39:06.439Z,94.26
2022-08-12T16:41:08.636Z,93.66
2022-08-12T16:43:33.510Z,94.65
2022-08-12T16:46:07.902Z,95.86
2022-08-12T16:48:03.968Z,97.02
2022-08-12T16:50:08.226Z,98.29
2022-08-12T16:52:18.510Z,98.81
2022-08-12T16:54:36.162Z,99.16
2022-08-12T16:56:54.720Z,99.08
2022-08-12T16:58:59.870Z,98.91
2022-08-12T17:01:02.262Z,98.85
2022-08-12T17:03:05.178Z,98.88
2022-08-12T17:05:12.921Z,99.99
2022-08-12T17:07:19.554Z,100.00
2022-08-12T17:09:22.132Z,100.00
2022-08-12T17:11:25.100Z,100.00
2022-08-12T17:13:33.835Z,100.00
2022-08-12T17:15:56.810Z,100.00
2022-08-12T17:18:15.424Z,100.00
2022-08-12T17:20:36.164Z,100.00
2022-08-12T17:22:42.135Z,100.00
2022-08-12T17:24:55.590Z,100.00
2022-08-12T17:27:00.038Z,100.00
2022-08-12T17:29:03.402Z,100.00
2022-08-12T17:31:07.569Z,100.00
2022-08-12T17:33:24.930Z,100.00
2022-08-12T17:35:37.226Z,100.00
2022-08-12T17:37:48.779Z,100.00
2022-08-12T17:40:10.784Z,100.00
2022-08-12T17:42:32.798Z,100.00
2022-08-12T17:44:41.146Z,100.00
2022-08-12T17:46:45.673Z,100.00
2022-08-12T17:48:57.722Z,100.00
2022-08-12T17:51:02.941Z,100.00
2022-08-12T17:53:05.714Z,100.00
2022-08-12T17:55:40.909Z,100.00
2022-08-12T17:57:41.741Z,100.00
2022-08-12T17:59:47.856Z,100.00
2022-08-12T18:01:51.513Z,100.00
2022-08-12T18:04:05.788Z,100.00
2022-08-12T18:06:16.312Z,100.00
2022-08-12T18:08:22.287Z,100.00
2022-08-12T18:10:52.909Z,100.00
2022-08-12T18:13:01.520Z,100.00
2022-08-12T18:15:08.602Z,100.00
2022-08-12T18:17:12.216Z,100.00
2022-08-12T18:19:14.483Z,100.00
2022-08-12T18:21:16.667Z,100.00
2022-08-12T18:23:23.533Z,100.00
2022-08-12T18:26:14.493Z,100.00
2022-08-12T18:28:15.880Z,100.00
2022-08-12T18:30:29.498Z,100.00
2022-08-12T18:32:59.083Z,100.00
2022-08-12T18:35:10.999Z,100.00
2022-08-12T18:37:29.432Z,100.00
2022-08-12T18:39:54.853Z,100.00
2022-08-12T18:41:59.592Z,100.00
2022-08-12T18:44:12.304Z,100.00
2022-08-12T18:46:21.233Z,100.00
2022-08-12T18:48:24.894Z,100.00
2022-08-12T18:50:49.349Z,100.00
2022-08-12T18:52:55.068Z,100.00
2022-08-12T18:55:05.890Z,100.00
2022-08-12T18:57:19.430Z,100.00
2022-08-12T19:00:00.816Z,100.00
2022-08-12T19:02:17.127Z,100.00
2022-08-12T19:04:18.811Z,100.00
2022-08-12T19:06:21.301Z,100.00
2022-08-12T19:08:30.241Z,100.00
2022-08-12T19:10:33.179Z,100.00
2022-08-12T19:12:57.937Z,100.00
2022-08-12T19:15:04.156Z,100.00
2022-08-12T19:17:11.548Z,100.00
2022-08-12T19:19:18.255Z,100.00
2022-08-12T19:21:28.214Z,100.00
2022-08-12T19:23:34.992Z,100.00
2022-08-12T19:25:59.786Z,100.00
2022-08-12T19:28:05.377Z,100.00
2022-08-12T19:30:13.024Z,100.00
2022-08-12T19:32:23.659Z,100.00
2022-08-12T19:37:02.137Z,100.00
2022-08-12T19:39:15.103Z,100.00
2022-08-12T19:41:25.332Z,100.00
2022-08-12T19:44:00.416Z,100.00
2022-08-12T19:46:08.842Z,100.00
2022-08-12T19:48:17.587Z,100.00
2022-08-12T19:50:20.848Z,100.00
2022-08-12T19:52:27.988Z,100.00
2022-08-12T19:54:31.587Z,100.00
2022-08-12T19:56:35.536Z,100.00
2022-08-12T19:58:37.826Z,100.00
2022-08-12T20:00:43.677Z,100.00
2022-08-12T20:03:00.797Z,100.00
2022-08-12T20:06:06.056Z,100.00
2022-08-12T20:07:34.592Z,100.00
2022-08-12T20:09:50.625Z,100.00
2022-08-12T20:12:14.507Z,100.00
2022-08-12T20:14:19.509Z,100.00
2022-08-12T20:16:51.047Z,100.00
2022-08-12T20:18:53.414Z,100.00
2022-08-12T20:21:00.361Z,100.00
2022-08-12T20:23:06.366Z,100.00
2022-08-12T20:25:12.621Z,100.00
2022-08-12T20:27:29.411Z,100.00
2022-08-12T20:29:45.511Z,100.00
2022-08-12T20:31:54.156Z,100.00
2022-08-12T20:33:59.976Z,100.00
2022-08-12T20:36:40.171Z,100.00
2022-08-12T20:38:40.554Z,100.00
2022-08-12T20:40:47.956Z,100.00
2022-08-12T20:42:58.980Z,100.00
2022-08-12T20:45:02.179Z,100.00
2022-08-12T20:47:18.471Z,100.00
2022-08-12T20:49:25.555Z,100.00
2022-08-12T20:51:40.777Z,100.00
2022-08-12T20:54:04.333Z,100.00
2022-08-12T20:56:22.338Z,100.00
2022-08-12T20:58:40.011Z,100.00
2022-08-12T21:00:44.524Z,100.00
2022-08-12T21:02:50.119Z,100.00
2022-08-12T21:05:19.621Z,100.00
2022-08-12T21:07:23.526Z,100.00
2022-08-12T21:09:40.669Z,100.00
2022-08-12T21:11:44.136Z,100.00
2022-08-12T21:13:59.117Z,100.00
2022-08-12T21:16:02.704Z,100.00
2022-08-12T21:18:10.703Z,100.00
2022-08-12T21:20:26.881Z,100.00
2022-08-12T21:22:33.352Z,100.00
2022-08-12T21:24:46.725Z,100.00
2022-08-12T21:26:53.719Z,100.00
2022-08-12T21:29:01.614Z,100.00
2022-08-12T21:32:34.352Z,100.00
2022-08-12T21:33:30.763Z,100.00
2022-08-12T21:35:41.657Z,100.00
2022-08-12T21:37:52.916Z,100.00
2022-08-12T21:39:56.837Z,100.00
2022-08-12T21:42:02.435Z,100.00
2022-08-12T21:44:24.535Z,100.00
2022-08-12T21:46:38.966Z,100.00
2022-08-12T21:48:41.011Z,100.00
2022-08-12T21:50:46.114Z,100.00
2022-08-12T21:52:56.010Z,100.00
2022-08-12T21:55:01.802Z,100.00
2022-08-12T21:57:04.490Z,100.00
2022-08-12T21:59:16.533Z,100.00
2022-08-12T22:01:23.019Z,100.00
2022-08-12T22:04:03.716Z,100.00
2022-08-12T22:06:43.159Z,100.00
2022-08-12T22:09:04.165Z,100.00
2022-08-12T22:11:08.058Z,100.00
2022-08-12T22:14:02.030Z,100.00
2022-08-12T22:15:44.680Z,100.00
2022-08-12T22:17:55.297Z,100.00
2022-08-12T22:20:11.013Z,100.00
2022-08-12T22:22:14.861Z,100.00
2022-08-12T22:24:18.300Z,97.45
2022-08-12T22:26:37.496Z,95.88
2022-08-12T22:29:02.879Z,94.74
2022-08-12T22:31:15.223Z,95.59
2022-08-12T22:33:19.930Z,95.54
2022-08-12T22:35:47.463Z,95.74
2022-08-12T22:37:55.847Z,97.03
2022-08-12T22:39:58.014Z,97.21
2022-08-12T22:42:19.892Z,97.83
2022-08-12T22:44:54.225Z,98.01
2022-08-12T22:47:03.601Z,98.03
2022-08-12T22:49:06.521Z,98.85
2022-08-12T22:51:11.079Z,98.73
2022-08-12T22:53:16.641Z,99.32
2022-08-12T22:55:59.034Z,99.47
2022-08-12T22:57:53.923Z,99.37
2022-08-12T23:00:27.971Z,99.54
2022-08-12T23:02:31.166Z,99.70
2022-08-12T23:04:35.699Z,99.92
2022-08-12T23:06:37.701Z,100.00
2022-08-12T23:08:40.621Z,100.00
2022-08-12T23:10:45.028Z,100.00
2022-08-12T23:13:05.695Z,100.00
2022-08-12T23:15:15.871Z,100.00
2022-08-12T23:17:21.496Z,100.00
2022-08-12T23:19:45.864Z,100.00
2022-08-12T23:22:03.777Z,100.00
2022-08-12T23:24:18.438Z,100.00
2022-08-12T23:26:42.250Z,100.00
2022-08-12T23:29:25.983Z,100.00
2022-08-12T23:32:01.596Z,100.00
2022-08-12T23:34:00.722Z,100.00
2022-08-12T23:36:08.313Z,100.00
2022-08-12T23:38:31.007Z,100.00
2022-08-12T23:40:34.137Z,100.00
2022-08-12T23:42:44.204Z,100.00
2022-08-12T23:44:53.596Z,100.00
2022-08-12T23:47:00.003Z,100.00
2022-08-12T23:49:01.912Z,100.00
2022-08-12T23:51:21.709Z,100.00
2022-08-12T23:53:32.236Z,100.00
2022-08-12T23:55:38.250Z,100.00
2022-08-12T23:58:17.072Z,100.00
